createdAt,value
2023-01-12T00:00:13.299Z,55.15
2023-01-12T00:02:44.539Z,55.26
2023-01-12T00:05:16.679Z,55.19
2023-01-12T00:07:48.821Z,55.16
2023-01-12T00:10:20.812Z,55.33
2023-01-12T00:12:52.935Z,55.25
2023-01-12T00:15:43.243Z,55.24
2023-01-12T00:18:15.345Z,55.33
2023-01-12T00:20:51.271Z,55.39
2023-01-12T00:23:24.971Z,55.30
2023-01-12T00:25:57.034Z,55.26
2023-01-12T00:28:29.162Z,55.59
2023-01-12T00:31:08.058Z,55.60
2023-01-12T00:33:41.148Z,55.26
2023-01-12T00:36:14.826Z,55.36
2023-01-12T00:38:48.740Z,55.28
2023-01-12T00:41:38.501Z,55.18
2023-01-12T00:44:28.173Z,55.25
2023-01-12T00:47:00.413Z,55.32
2023-01-12T00:49:32.275Z,55.43
2023-01-12T00:52:04.868Z,55.41
2023-01-12T00:54:37.719Z,55.45
2023-01-12T00:57:09.972Z,55.59
2023-01-12T00:59:42.517Z,55.60
2023-01-12T01:02:14.890Z,55.65
2023-01-12T01:04:47.005Z,55.72
2023-01-12T01:07:20.689Z,55.66
2023-01-12T01:09:52.190Z,55.61
2023-01-12T01:12:23.664Z,55.64
2023-01-12T01:14:55.794Z,55.51
2023-01-12T01:17:28.936Z,55.49
2023-01-12T01:20:01.482Z,55.79
2023-01-12T01:22:34.020Z,55.76
2023-01-12T01:25:06.587Z,55.84
2023-01-12T01:27:38.653Z,55.87
2023-01-12T01:30:11.407Z,55.99
2023-01-12T01:32:43.354Z,56.06
2023-01-12T01:35:15.277Z,56.24
2023-01-12T01:37:47.304Z,56.40
2023-01-12T01:40:19.520Z,56.62
2023-01-12T01:42:51.819Z,56.41
2023-01-12T01:45:23.968Z,56.57
2023-01-12T01:47:58.793Z,56.61
2023-01-12T01:50:36.369Z,56.67
2023-01-12T01:53:11.003Z,56.51
2023-01-12T01:55:49.956Z,56.39
2023-01-12T01:58:33.749Z,56.52
2023-01-12T02:01:06.212Z,56.45
2023-01-12T02:03:39.440Z,56.38
2023-01-12T02:06:11.772Z,56.29
2023-01-12T02:08:49.610Z,56.30
2023-01-12T02:11:40.165Z,56.34
2023-01-12T02:14:30.118Z,56.47
2023-01-12T02:17:38.180Z,56.36
2023-01-12T02:20:21.866Z,56.30
2023-01-12T02:23:13.036Z,56.48
2023-01-12T02:26:20.842Z,56.57
2023-01-12T02:29:05.176Z,56.48
2023-01-12T02:32:03.809Z,56.43
2023-01-12T02:34:47.359Z,56.48
2023-01-12T02:37:40.109Z,56.36
2023-01-12T02:40:18.193Z,55.89
2023-01-12T02:42:56.173Z,56.13
2023-01-12T02:45:39.963Z,56.15
2023-01-12T02:48:24.216Z,56.03
2023-01-12T02:51:02.144Z,56.10
2023-01-12T02:53:49.154Z,56.08
2023-01-12T02:56:32.925Z,56.33
2023-01-12T02:59:10.640Z,56.16
2023-01-12T03:01:44.867Z,56.48
2023-01-12T03:04:18.680Z,56.54
2023-01-12T03:06:54.274Z,56.50
2023-01-12T03:09:28.826Z,56.54
2023-01-12T03:12:06.717Z,56.46
2023-01-12T03:14:41.887Z,56.39
2023-01-12T03:17:16.923Z,56.31
2023-01-12T03:19:50.794Z,56.51
2023-01-12T03:22:23.916Z,56.64
2023-01-12T03:24:58.927Z,57.01
2023-01-12T03:27:35.835Z,56.88
2023-01-12T03:30:11.060Z,56.75
2023-01-12T03:32:43.926Z,56.81
2023-01-12T03:35:17.088Z,56.98
2023-01-12T03:37:58.513Z,57.06
2023-01-12T03:40:36.439Z,56.93
2023-01-12T03:43:26.386Z,56.90
2023-01-12T03:46:16.307Z,56.68
2023-01-12T03:49:00.053Z,56.50
2023-01-12T03:51:35.186Z,56.64
2023-01-12T03:54:09.900Z,56.59
2023-01-12T03:56:43.571Z,56.49
2023-01-12T03:59:17.000Z,56.51
2023-01-12T04:01:49.593Z,56.74
2023-01-12T04:04:22.986Z,56.61
2023-01-12T04:06:55.016Z,56.74
2023-01-12T04:09:27.006Z,56.56
2023-01-12T04:12:11.014Z,56.47
2023-01-12T04:14:47.916Z,56.84
2023-01-12T04:17:20.620Z,56.93
2023-01-12T04:19:54.253Z,56.79
2023-01-12T04:22:44.628Z,56.85
2023-01-12T04:25:19.736Z,56.74
2023-01-12T04:27:56.060Z,56.55
2023-01-12T04:30:28.892Z,56.77
2023-01-12T04:33:02.141Z,56.87
2023-01-12T04:35:34.092Z,56.84
2023-01-12T04:38:10.739Z,56.81
2023-01-12T04:40:43.187Z,56.93
2023-01-12T04:43:15.197Z,56.74
2023-01-12T04:45:48.112Z,56.44
2023-01-12T04:48:20.743Z,55.81
2023-01-12T04:50:53.705Z,56.04
2023-01-12T04:53:26.321Z,56.34
2023-01-12T04:55:58.985Z,56.50
2023-01-12T04:58:31.318Z,56.58
2023-01-12T05:01:15.488Z,56.35
2023-01-12T05:03:48.032Z,56.66
2023-01-12T05:06:20.150Z,56.69
2023-01-12T05:09:10.179Z,56.62
2023-01-12T05:11:42.635Z,56.79
2023-01-12T05:14:14.874Z,56.37
2023-01-12T05:16:47.229Z,56.47
2023-01-12T05:19:19.667Z,56.55
2023-01-12T05:21:51.911Z,56.71
2023-01-12T05:24:24.305Z,56.65
2023-01-12T05:26:57.052Z,56.86
2023-01-12T05:29:30.107Z,56.67
2023-01-12T05:32:02.145Z,56.64
2023-01-12T05:34:34.360Z,56.47
2023-01-12T05:37:06.470Z,55.93
2023-01-12T05:39:38.441Z,55.99
2023-01-12T05:42:28.066Z,55.95
2023-01-12T05:45:00.310Z,55.94
2023-01-12T05:47:33.543Z,55.95
2023-01-12T05:50:06.991Z,56.11
2023-01-12T05:52:39.491Z,56.19
2023-01-12T05:55:12.344Z,56.37
2023-01-12T05:57:44.568Z,56.21
2023-01-12T06:00:17.378Z,56.02
2023-01-12T06:02:49.512Z,55.94
2023-01-12T06:05:22.060Z,55.52
2023-01-12T06:07:54.254Z,55.42
2023-01-12T06:10:26.338Z,55.75
2023-01-12T06:13:16.010Z,55.92
2023-01-12T06:15:48.208Z,55.88
2023-01-12T06:18:22.711Z,56.18
2023-01-12T06:20:55.265Z,56.56
2023-01-12T06:23:35.544Z,56.99
2023-01-12T06:26:06.434Z,57.51
2023-01-12T06:28:41.057Z,57.40
2023-01-12T06:31:16.356Z,57.09
2023-01-12T06:33:49.306Z,56.74
2023-01-12T06:36:21.799Z,56.41
2023-01-12T06:38:54.301Z,56.71
2023-01-12T06:41:44.143Z,56.73
2023-01-12T06:44:16.489Z,57.04
2023-01-12T06:46:48.733Z,56.71
2023-01-12T06:49:21.290Z,56.45
2023-01-12T06:51:53.304Z,56.59
2023-01-12T06:54:25.347Z,56.27
2023-01-12T06:56:57.269Z,56.10
2023-01-12T06:59:29.836Z,56.01
2023-01-12T07:02:03.445Z,56.39
2023-01-12T07:04:35.888Z,56.76
2023-01-12T07:07:09.253Z,56.48
2023-01-12T07:09:41.330Z,56.23
2023-01-12T07:12:13.660Z,55.68
2023-01-12T07:14:45.985Z,55.67
2023-01-12T07:17:18.174Z,55.72
2023-01-12T07:19:50.431Z,55.79
2023-01-12T07:22:22.749Z,55.05
2023-01-12T07:24:57.569Z,54.76
2023-01-12T07:27:28.872Z,54.77
2023-01-12T07:30:01.022Z,54.73
2023-01-12T07:32:33.811Z,54.72
2023-01-12T07:35:07.916Z,54.64
2023-01-12T07:37:40.102Z,54.36
2023-01-12T07:40:13.256Z,53.57
2023-01-12T07:42:45.575Z,52.87
2023-01-12T07:45:17.608Z,52.57
2023-01-12T07:47:55.216Z,52.61
2023-01-12T07:50:29.035Z,52.99
2023-01-12T07:53:04.758Z,53.09
2023-01-12T07:55:38.955Z,53.43
2023-01-12T07:58:11.473Z,54.24
2023-01-12T08:00:44.536Z,54.36
2023-01-12T08:03:16.557Z,54.50
2023-01-12T08:05:49.638Z,53.17
2023-01-12T08:08:22.206Z,52.70
2023-01-12T08:10:54.749Z,52.87
2023-01-12T08:13:26.739Z,53.46
2023-01-12T08:16:06.179Z,54.07
2023-01-12T08:18:47.193Z,54.13
2023-01-12T08:21:22.055Z,53.64
2023-01-12T08:23:56.955Z,53.25
2023-01-12T08:26:38.204Z,53.08
2023-01-12T08:29:19.304Z,52.79
2023-01-12T08:31:52.193Z,51.72
2023-01-12T08:34:24.558Z,51.50
2023-01-12T08:36:58.831Z,52.09
2023-01-12T08:39:31.207Z,52.71
2023-01-12T08:42:03.856Z,53.30
2023-01-12T08:44:36.392Z,53.00
2023-01-12T08:47:14.635Z,52.45
2023-01-12T08:49:46.855Z,52.24
2023-01-12T08:52:19.042Z,52.02
2023-01-12T08:54:51.286Z,52.53
2023-01-12T08:57:23.395Z,52.81
2023-01-12T08:59:55.583Z,53.75
2023-01-12T09:02:28.189Z,53.88
2023-01-12T09:05:00.278Z,53.86
2023-01-12T09:07:34.024Z,54.37
2023-01-12T09:10:06.818Z,54.90
2023-01-12T09:12:38.734Z,55.44
2023-01-12T09:15:11.398Z,55.58
2023-01-12T09:17:44.616Z,55.79
2023-01-12T09:20:17.349Z,55.80
2023-01-12T09:22:49.559Z,55.88
2023-01-12T09:25:21.930Z,55.89
2023-01-12T09:27:54.075Z,56.00
2023-01-12T09:30:26.140Z,56.06
2023-01-12T09:32:58.942Z,56.14
2023-01-12T09:35:31.686Z,56.41
2023-01-12T09:38:03.736Z,56.24
2023-01-12T09:40:35.971Z,56.17
2023-01-12T09:43:28.786Z,56.13
2023-01-12T09:46:18.526Z,56.40
2023-01-12T09:48:50.965Z,56.48
2023-01-12T09:51:28.581Z,56.13
2023-01-12T09:54:00.557Z,56.19
2023-01-12T09:56:38.661Z,56.34
2023-01-12T09:59:13.913Z,56.39
2023-01-12T10:01:46.321Z,56.49
2023-01-12T10:04:18.574Z,56.49
2023-01-12T10:06:51.197Z,56.92
2023-01-12T10:09:24.681Z,57.05
2023-01-12T10:12:00.148Z,56.95
2023-01-12T10:14:35.102Z,56.97
2023-01-12T10:17:12.963Z,57.05
2023-01-12T10:20:04.258Z,56.98
2023-01-12T10:22:54.927Z,56.93
2023-01-12T10:25:30.101Z,57.23
2023-01-12T10:28:03.958Z,57.08
2023-01-12T10:30:36.336Z,57.23
2023-01-12T10:33:17.389Z,57.21
2023-01-12T10:36:13.473Z,57.43
2023-01-12T10:38:57.874Z,57.80
2023-01-12T10:41:39.755Z,57.64
2023-01-12T10:44:17.359Z,57.58
2023-01-12T10:46:52.621Z,57.87
2023-01-12T10:49:27.058Z,58.29
2023-01-12T10:52:04.623Z,57.99
2023-01-12T10:54:41.974Z,58.09
2023-01-12T10:57:23.490Z,58.13
2023-01-12T10:59:58.923Z,57.98
2023-01-12T11:02:44.761Z,57.87
2023-01-12T11:05:36.956Z,57.97
2023-01-12T11:08:29.825Z,57.95
2023-01-12T11:11:05.334Z,57.88
2023-01-12T11:13:39.397Z,58.02
2023-01-12T11:16:23.540Z,57.75
2023-01-12T11:19:10.350Z,57.84
2023-01-12T11:21:45.185Z,58.02
2023-01-12T11:24:55.155Z,57.86
2023-01-12T11:27:32.922Z,58.12
2023-01-12T11:30:24.697Z,57.74
2023-01-12T11:33:04.518Z,57.86
2023-01-12T11:35:54.379Z,58.22
2023-01-12T11:38:29.359Z,57.76
2023-01-12T11:41:01.445Z,58.22
2023-01-12T11:43:51.175Z,58.04
2023-01-12T11:46:26.914Z,58.21
2023-01-12T11:49:07.971Z,58.03
2023-01-12T11:51:40.940Z,58.17
2023-01-12T11:54:19.426Z,58.00
2023-01-12T11:57:06.825Z,58.11
2023-01-12T11:59:47.374Z,58.16
2023-01-12T12:02:40.058Z,58.14
2023-01-12T12:05:27.414Z,58.30
2023-01-12T12:08:08.884Z,58.35
2023-01-12T12:11:02.761Z,58.14
2023-01-12T12:13:45.180Z,58.21
2023-01-12T12:16:31.712Z,58.08
2023-01-12T12:19:13.096Z,57.81
2023-01-12T12:21:50.908Z,58.15
2023-01-12T12:24:37.813Z,58.27
2023-01-12T12:27:25.420Z,58.66
2023-01-12T12:30:06.004Z,59.03
2023-01-12T12:32:49.778Z,59.18
2023-01-12T12:35:41.712Z,59.24
2023-01-12T12:38:21.229Z,59.53
2023-01-12T12:41:22.876Z,59.73
2023-01-12T12:44:31.865Z,59.96
2023-01-12T12:47:24.870Z,59.99
2023-01-12T12:49:59.811Z,60.11
2023-01-12T12:52:35.615Z,60.35
2023-01-12T12:55:09.782Z,60.62
2023-01-12T12:58:03.199Z,60.55
2023-01-12T13:00:46.934Z,60.60
2023-01-12T13:03:47.325Z,60.65
2023-01-12T13:06:40.522Z,60.90
2023-01-12T13:09:18.255Z,61.05
2023-01-12T13:12:02.568Z,61.17
2023-01-12T13:14:40.163Z,61.34
2023-01-12T13:17:24.122Z,61.30
2023-01-12T13:20:08.471Z,61.46
2023-01-12T13:22:52.201Z,61.24
2023-01-12T13:25:27.959Z,60.91
2023-01-12T13:28:03.203Z,60.87
2023-01-12T13:30:39.862Z,61.12
2023-01-12T13:33:24.263Z,61.21
2023-01-12T13:36:01.579Z,61.31
2023-01-12T13:38:39.423Z,61.49
2023-01-12T13:41:50.738Z,61.47
2023-01-12T13:44:32.310Z,61.73
2023-01-12T13:47:10.458Z,61.57
2023-01-12T13:49:50.945Z,61.58
2023-01-12T13:52:25.896Z,61.61
2023-01-12T13:54:58.991Z,61.63
2023-01-12T13:57:33.271Z,61.66
2023-01-12T14:00:11.462Z,61.85
2023-01-12T14:02:46.879Z,62.02
2023-01-12T14:05:51.591Z,61.97
2023-01-12T14:08:51.683Z,62.05
2023-01-12T14:11:25.393Z,61.78
2023-01-12T14:14:02.180Z,61.82
2023-01-12T14:17:04.810Z,62.02
2023-01-12T14:19:28.184Z,62.32
2023-01-12T14:22:02.912Z,62.36
2023-01-12T14:24:35.000Z,62.50
2023-01-12T14:27:10.402Z,62.77
2023-01-12T14:29:42.792Z,63.13
2023-01-12T14:32:15.908Z,63.19
2023-01-12T14:34:53.295Z,63.27
2023-01-12T14:37:31.292Z,63.26
2023-01-12T14:40:04.401Z,63.06
2023-01-12T14:42:54.154Z,62.95
2023-01-12T14:45:46.038Z,63.11
2023-01-12T14:48:23.365Z,63.04
2023-01-12T14:51:03.805Z,63.02
2023-01-12T14:53:43.903Z,62.97
2023-01-12T14:56:22.041Z,63.07
2023-01-12T14:58:55.087Z,63.17
2023-01-12T15:01:34.109Z,63.10
2023-01-12T15:04:09.161Z,63.20
2023-01-12T15:06:43.848Z,63.41
2023-01-12T15:09:31.834Z,63.53
2023-01-12T15:12:29.440Z,63.76
2023-01-12T15:15:26.936Z,63.73
2023-01-12T15:18:16.732Z,63.88
2023-01-12T15:21:06.364Z,64.03
2023-01-12T15:23:56.813Z,64.07
2023-01-12T15:26:28.948Z,63.92
2023-01-12T15:29:00.915Z,63.85
2023-01-12T15:31:35.929Z,63.86
2023-01-12T15:34:10.372Z,63.71
2023-01-12T15:36:42.334Z,63.63
2023-01-12T15:39:18.131Z,63.55
2023-01-12T15:42:07.954Z,63.07
2023-01-12T15:44:40.131Z,62.90
2023-01-12T15:47:16.965Z,63.04
2023-01-12T15:49:51.513Z,62.85
2023-01-12T15:52:26.367Z,62.53
2023-01-12T15:54:58.762Z,62.53
2023-01-12T15:57:32.770Z,62.40
2023-01-12T16:00:05.438Z,62.31
2023-01-12T16:02:39.468Z,62.19
2023-01-12T16:05:13.595Z,61.90
2023-01-12T16:07:48.485Z,61.79
2023-01-12T16:10:21.172Z,61.65
2023-01-12T16:12:54.780Z,61.83
2023-01-12T16:15:28.930Z,61.37
2023-01-12T16:18:01.698Z,61.39
2023-01-12T16:20:33.943Z,61.13
2023-01-12T16:23:05.968Z,61.19
2023-01-12T16:25:38.594Z,61.43
2023-01-12T16:28:10.993Z,61.34
2023-01-12T16:30:45.813Z,61.30
2023-01-12T16:33:18.058Z,61.40
2023-01-12T16:35:50.480Z,61.22
2023-01-12T16:38:22.501Z,61.23
2023-01-12T16:40:54.970Z,61.18
2023-01-12T16:43:27.520Z,61.19
2023-01-12T16:45:59.909Z,61.22
2023-01-12T16:48:33.565Z,61.12
2023-01-12T16:51:07.228Z,61.29
2023-01-12T16:53:40.819Z,61.28
2023-01-12T16:56:15.144Z,61.14
2023-01-12T16:58:50.464Z,61.20
2023-01-12T17:01:26.818Z,61.03
2023-01-12T17:03:59.133Z,61.11
2023-01-12T17:06:35.131Z,60.90
2023-01-12T17:09:07.744Z,61.19
2023-01-12T17:11:41.430Z,61.24
2023-01-12T17:14:27.617Z,61.06
2023-01-12T17:17:04.960Z,60.83
2023-01-12T17:19:38.468Z,60.69
2023-01-12T17:22:12.735Z,60.61
2023-01-12T17:24:44.972Z,60.64
2023-01-12T17:27:17.237Z,60.87
2023-01-12T17:29:49.923Z,60.89
2023-01-12T17:32:22.213Z,61.02
2023-01-12T17:34:54.545Z,61.12
2023-01-12T17:37:26.562Z,61.26
2023-01-12T17:39:58.779Z,61.25
2023-01-12T17:42:49.606Z,61.38
2023-01-12T17:45:21.307Z,61.24
2023-01-12T17:47:53.346Z,61.01
2023-01-12T17:50:25.406Z,61.07
2023-01-12T17:52:57.258Z,61.39
2023-01-12T17:55:29.630Z,61.45
2023-01-12T17:58:01.777Z,61.48
2023-01-12T18:00:34.491Z,61.54
2023-01-12T18:03:06.754Z,61.58
2023-01-12T18:05:39.682Z,61.71
2023-01-12T18:08:12.793Z,61.90
2023-01-12T18:10:44.944Z,61.83
2023-01-12T18:13:16.817Z,61.87
2023-01-12T18:15:48.897Z,61.96
2023-01-12T18:18:20.928Z,61.96
2023-01-12T18:20:53.916Z,61.90
2023-01-12T18:23:25.977Z,62.10
2023-01-12T18:25:59.757Z,61.97
2023-01-12T18:28:31.975Z,61.92
2023-01-12T18:31:12.965Z,61.92
2023-01-12T18:33:57.637Z,62.15
2023-01-12T18:36:29.685Z,62.04
2023-01-12T18:39:01.965Z,62.08
2023-01-12T18:41:53.660Z,62.06
2023-01-12T18:44:26.431Z,62.23
2023-01-12T18:47:17.068Z,62.04
2023-01-12T18:49:49.369Z,61.88
2023-01-12T18:52:39.396Z,61.66
2023-01-12T18:55:11.385Z,61.85
2023-01-12T18:57:43.412Z,61.91
2023-01-12T19:00:17.030Z,61.86
2023-01-12T19:02:48.609Z,61.96
2023-01-12T19:05:22.199Z,61.74
2023-01-12T19:08:01.407Z,61.64
2023-01-12T19:10:34.360Z,61.69
2023-01-12T19:13:24.271Z,61.98
2023-01-12T19:16:15.300Z,62.03
2023-01-12T19:18:47.450Z,62.26
2023-01-12T19:21:36.979Z,62.10
2023-01-12T19:24:29.613Z,62.30
2023-01-12T19:27:19.404Z,62.13
2023-01-12T19:29:51.362Z,62.06
2023-01-12T19:32:23.911Z,62.30
2023-01-12T19:35:02.328Z,62.62
2023-01-12T19:37:29.890Z,62.60
2023-01-12T19:40:06.481Z,62.65
2023-01-12T19:42:56.163Z,62.64
2023-01-12T19:45:28.102Z,62.65
2023-01-12T19:48:00.367Z,62.59
2023-01-12T19:50:32.195Z,62.64
2023-01-12T19:53:04.729Z,62.54
2023-01-12T19:55:37.055Z,62.64
2023-01-12T19:58:09.388Z,62.89
2023-01-12T20:00:46.892Z,62.76
2023-01-12T20:03:21.254Z,62.72
2023-01-12T20:05:53.735Z,62.71
2023-01-12T20:08:27.440Z,62.76
2023-01-12T20:11:03.970Z,62.79
2023-01-12T20:13:35.071Z,62.85
2023-01-12T20:16:08.670Z,63.05
2023-01-12T20:18:42.245Z,63.04
2023-01-12T20:21:14.194Z,63.06
2023-01-12T20:23:46.344Z,62.92
2023-01-12T20:26:18.530Z,62.89
2023-01-12T20:28:50.567Z,63.00
2023-01-12T20:31:23.584Z,62.93
2023-01-12T20:33:55.683Z,62.77
2023-01-12T20:36:27.585Z,62.79
2023-01-12T20:39:00.368Z,63.06
2023-01-12T20:41:32.393Z,63.06
2023-01-12T20:44:06.672Z,63.24
2023-01-12T20:46:37.856Z,63.33
2023-01-12T20:49:09.820Z,63.12
2023-01-12T20:51:41.859Z,63.00
2023-01-12T20:54:13.869Z,63.39
2023-01-12T20:56:45.843Z,63.55
2023-01-12T20:59:17.728Z,63.56
2023-01-12T21:01:49.801Z,63.55
2023-01-12T21:04:21.895Z,63.63
2023-01-12T21:06:54.115Z,63.46
2023-01-12T21:09:26.256Z,63.58
2023-01-12T21:11:58.116Z,63.56
2023-01-12T21:14:30.487Z,63.69
2023-01-12T21:17:03.097Z,63.55
2023-01-12T21:19:35.512Z,63.68
2023-01-12T21:22:07.526Z,63.83
2023-01-12T21:24:39.540Z,64.01
2023-01-12T21:27:11.597Z,63.89
2023-01-12T21:29:43.624Z,63.88
2023-01-12T21:32:15.443Z,63.83
2023-01-12T21:34:49.069Z,63.96
2023-01-12T21:37:22.626Z,63.95
2023-01-12T21:39:54.589Z,64.13
2023-01-12T21:42:44.615Z,64.14
2023-01-12T21:45:16.728Z,64.04
2023-01-12T21:47:48.700Z,64.08
2023-01-12T21:50:20.868Z,64.17
2023-01-12T21:52:52.855Z,64.41
2023-01-12T21:55:24.920Z,64.35
2023-01-12T21:57:57.231Z,64.44
2023-01-12T22:00:29.927Z,64.33
2023-01-12T22:03:02.217Z,64.51
2023-01-12T22:05:34.960Z,64.41
2023-01-12T22:08:07.028Z,64.46
2023-01-12T22:10:39.012Z,64.67
2023-01-12T22:13:13.845Z,64.46
2023-01-12T22:15:47.713Z,64.52
2023-01-12T22:18:20.961Z,64.66
2023-01-12T22:20:52.969Z,64.66
2023-01-12T22:23:24.974Z,64.71
2023-01-12T22:25:57.047Z,64.90
2023-01-12T22:28:29.161Z,65.00
2023-01-12T22:31:02.515Z,65.00
2023-01-12T22:33:34.486Z,65.06
2023-01-12T22:36:07.983Z,65.18
2023-01-12T22:38:40.148Z,65.23
2023-01-12T22:41:13.209Z,65.35
2023-01-12T22:43:45.201Z,65.22
2023-01-12T22:46:22.860Z,65.21
2023-01-12T22:49:02.050Z,65.46
2023-01-12T22:51:34.319Z,65.47
2023-01-12T22:54:06.340Z,65.48
2023-01-12T22:56:38.779Z,65.28
2023-01-12T22:59:11.189Z,65.42
2023-01-12T23:01:43.325Z,65.33
2023-01-12T23:04:15.306Z,65.31
2023-01-12T23:06:47.632Z,65.23
2023-01-12T23:09:19.941Z,65.26
2023-01-12T23:11:51.973Z,65.26
2023-01-12T23:14:24.073Z,65.40
2023-01-12T23:16:56.077Z,65.44
2023-01-12T23:19:28.444Z,65.44
2023-01-12T23:22:02.206Z,65.78
2023-01-12T23:24:34.221Z,65.84
2023-01-12T23:27:07.063Z,65.77
2023-01-12T23:29:39.289Z,65.79
2023-01-12T23:32:11.361Z,65.87
2023-01-12T23:34:43.344Z,65.89
2023-01-12T23:37:15.373Z,65.93
2023-01-12T23:39:47.441Z,66.00
2023-01-12T23:42:19.412Z,66.07
2023-01-12T23:44:52.118Z,66.27
2023-01-12T23:47:24.559Z,66.34
2023-01-12T23:49:57.515Z,66.28
2023-01-12T23:52:29.837Z,66.25
2023-01-12T23:55:01.960Z,66.20
2023-01-12T23:57:34.417Z,66.24
